Time;durP1;ratioP1;P1;durP2;ratioP2;P2;SDS_P1;SDS_P2;PMS_P1;PMS_P2;Temp;Humidity;BMP_temperature;BMP_pressure;BME280_temperature;BME280_humidity;BME280_pressure;Samples;Min_cycle;Max_cycle;Signal;HPM_P1;HPM_P2
2024/01/12 00:00:33;;;;;;;54.40;19.95;;;0.90;99.90;;;;;;4870045;29;20046;-73
2024/01/12 00:02:58;;;;;;;48.70;20.02;;;0.90;99.90;;;;;;4869996;29;20048;-73
2024/01/12 00:05:24;;;;;;;50.60;20.95;;;0.90;99.90;;;;;;4881727;29;20133;-73
2024/01/12 00:07:50;;;;;;;45.88;18.48;;;0.90;99.90;;;;;;4867922;29;21254;-73
2024/01/12 00:10:15;;;;;;;51.47;19.75;;;0.90;99.90;;;;;;4880270;29;20717;-73
2024/01/12 00:12:41;;;;;;;47.95;19.23;;;0.90;99.90;;;;;;4852238;29;20064;-73
2024/01/12 00:15:08;;;;;;;50.15;18.92;;;0.90;99.90;;;;;;4871621;29;20515;-72
2024/01/12 00:17:34;;;;;;;56.58;20.98;;;0.90;99.90;;;;;;4858762;29;20087;-73
2024/01/12 00:19:59;;;;;;;48.38;20.70;;;0.90;99.90;;;;;;4877750;29;20080;-74
2024/01/12 00:22:25;;;;;;;51.50;20.55;;;0.90;99.90;;;;;;4851586;29;20140;-73
2024/01/12 00:24:51;;;;;;;48.22;20.50;;;0.80;99.90;;;;;;4879831;29;20096;-73
2024/01/12 00:27:16;;;;;;;50.63;20.55;;;0.80;99.90;;;;;;4859696;29;20048;-73
2024/01/12 00:29:42;;;;;;;55.03;22.02;;;0.80;99.90;;;;;;4879617;29;21080;-73
2024/01/12 00:32:08;;;;;;;56.45;22.70;;;0.80;99.90;;;;;;4870001;29;20049;-73
2024/01/12 00:34:33;;;;;;;52.40;20.95;;;0.80;99.90;;;;;;4853130;29;20058;-73
2024/01/12 00:36:59;;;;;;;52.13;20.30;;;0.80;99.90;;;;;;4879076;29;20135;-73
2024/01/12 00:39:25;;;;;;;55.80;21.55;;;0.70;99.90;;;;;;4865619;29;20049;-73
2024/01/12 00:41:52;;;;;;;54.03;20.65;;;0.70;99.90;;;;;;4883715;29;20512;-74
2024/01/12 00:44:18;;;;;;;46.30;19.35;;;0.70;99.90;;;;;;4852347;29;20109;-73
2024/01/12 00:46:50;;;;;;;49.45;21.73;;;0.80;99.90;;;;;;4895581;29;20645;-73
2024/01/12 00:49:17;;;;;;;50.55;19.75;;;0.70;99.90;;;;;;4877298;29;20040;-73
2024/01/12 00:51:43;;;;;;;49.25;18.63;;;0.70;99.90;;;;;;4880400;29;20044;-73
2024/01/12 00:54:09;;;;;;;41.63;18.20;;;0.70;99.90;;;;;;4905166;29;20064;-73
2024/01/12 00:56:35;;;;;;;48.60;17.85;;;0.70;99.90;;;;;;4861936;29;20041;-73
2024/01/12 00:59:00;;;;;;;45.95;20.27;;;0.80;99.90;;;;;;4871782;29;20196;-74
2024/01/12 01:01:26;;;;;;;45.28;18.65;;;0.80;99.90;;;;;;4868832;29;20482;-73
2024/01/12 01:03:52;;;;;;;56.35;21.13;;;0.80;99.90;;;;;;4866477;29;20045;-73
2024/01/12 01:06:17;;;;;;;44.78;19.63;;;0.80;99.90;;;;;;4874500;29;20046;-73
2024/01/12 01:08:43;;;;;;;44.83;20.10;;;0.80;99.90;;;;;;4897385;29;20549;-73
2024/01/12 01:11:09;;;;;;;47.78;19.65;;;0.80;99.90;;;;;;4867426;29;20098;-73
2024/01/12 01:13:36;;;;;;;48.30;20.05;;;0.90;99.90;;;;;;4889879;29;20041;-73
2024/01/12 01:16:02;;;;;;;49.22;18.95;;;0.80;99.90;;;;;;4901040;29;20432;-73
2024/01/12 01:18:30;;;;;;;42.78;20.05;;;0.80;99.90;;;;;;4875970;29;20049;-73
2024/01/12 01:20:57;;;;;;;42.63;17.95;;;0.80;99.90;;;;;;4870573;29;20063;-73
2024/01/12 01:23:23;;;;;;;46.65;19.08;;;0.80;99.90;;;;;;4860216;29;20057;-73
2024/01/12 01:25:49;;;;;;;47.80;19.10;;;0.90;99.90;;;;;;4861907;29;20049;-73
2024/01/12 01:28:15;;;;;;;47.10;18.67;;;0.90;99.90;;;;;;4865900;29;20061;-73
2024/01/12 01:30:40;;;;;;;42.53;18.23;;;0.90;99.90;;;;;;4850361;29;20548;-73
2024/01/12 01:33:06;;;;;;;43.50;16.55;;;0.90;99.90;;;;;;4859029;29;20049;-73
2024/01/12 01:35:32;;;;;;;39.15;17.52;;;0.90;99.90;;;;;;4884100;29;20054;-73
2024/01/12 01:37:58;;;;;;;36.97;16.33;;;0.90;99.90;;;;;;4870662;29;20053;-73
2024/01/12 01:40:23;;;;;;;37.42;16.95;;;0.90;99.90;;;;;;4856525;29;20053;-73
2024/01/12 01:42:49;;;;;;;40.22;17.98;;;0.90;99.90;;;;;;4871428;29;20080;-73
2024/01/12 01:45:15;;;;;;;45.75;18.52;;;1.00;99.90;;;;;;4884658;29;20464;-73
2024/01/12 01:47:42;;;;;;;40.97;16.77;;;1.00;99.90;;;;;;4861000;29;20088;-73
2024/01/12 01:50:09;;;;;;;42.40;17.10;;;1.00;99.90;;;;;;4875042;29;20076;-73
2024/01/12 01:52:34;;;;;;;39.60;15.70;;;1.00;99.90;;;;;;4858950;29;20131;-73
2024/01/12 01:55:00;;;;;;;39.33;14.88;;;1.00;99.90;;;;;;4881879;29;20139;-73
2024/01/12 01:57:27;;;;;;;34.33;14.45;;;1.00;99.90;;;;;;4857645;29;20057;-73
2024/01/12 01:59:54;;;;;;;34.33;13.73;;;1.10;99.90;;;;;;4862874;29;20052;-73
2024/01/12 02:02:20;;;;;;;33.97;14.13;;;1.10;99.90;;;;;;4845914;29;20046;-73
2024/01/12 02:04:46;;;;;;;36.95;13.00;;;1.10;99.90;;;;;;4851344;29;20057;-72
2024/01/12 02:07:11;;;;;;;32.80;11.50;;;1.20;99.90;;;;;;4877178;29;20044;-73
2024/01/12 02:09:37;;;;;;;35.35;12.52;;;1.20;99.90;;;;;;4886678;29;20129;-73
2024/01/12 02:12:05;;;;;;;42.28;12.93;;;1.30;99.90;;;;;;4853887;29;20041;-73
2024/01/12 02:14:31;;;;;;;34.03;11.60;;;1.30;99.90;;;;;;4873552;29;20048;-73
2024/01/12 02:16:57;;;;;;;35.55;12.65;;;1.30;99.90;;;;;;4891657;29;20049;-73
2024/01/12 02:19:23;;;;;;;34.33;13.93;;;1.30;99.90;;;;;;4861938;29;20076;-73
2024/01/12 02:21:48;;;;;;;33.05;13.40;;;1.40;99.90;;;;;;4868075;29;20133;-73
2024/01/12 02:24:14;;;;;;;28.80;11.55;;;1.40;99.90;;;;;;4877097;29;20048;-73
2024/01/12 02:26:39;;;;;;;28.00;11.75;;;1.40;99.90;;;;;;4890413;29;20048;-73
2024/01/12 02:29:05;;;;;;;27.50;11.20;;;1.40;99.90;;;;;;4890373;29;20067;-73
2024/01/12 02:31:31;;;;;;;29.63;11.27;;;1.40;99.90;;;;;;4871109;29;20047;-73
2024/01/12 02:33:56;;;;;;;28.23;10.57;;;1.40;99.90;;;;;;4885338;29;20048;-73
2024/01/12 02:36:26;;;;;;;25.42;10.98;;;1.50;99.90;;;;;;4866606;29;20071;-73
2024/01/12 02:38:54;;;;;;;29.92;9.10;;;1.50;99.90;;;;;;4874295;29;20048;-73
2024/01/12 02:41:20;;;;;;;27.83;9.30;;;1.50;99.90;;;;;;4866613;29;20410;-73
2024/01/12 02:43:46;;;;;;;24.88;9.00;;;1.60;99.90;;;;;;4853533;29;20069;-73
2024/01/12 02:46:12;;;;;;;29.73;8.80;;;1.60;99.90;;;;;;4871372;29;20180;-73
2024/01/12 02:48:38;;;;;;;25.70;8.98;;;1.60;99.90;;;;;;4878167;29;20556;-73
2024/01/12 02:51:04;;;;;;;34.45;10.40;;;1.60;99.90;;;;;;4864117;29;20052;-73
2024/01/12 02:53:29;;;;;;;23.83;9.50;;;1.60;99.90;;;;;;4860691;29;20061;-73
2024/01/12 02:55:55;;;;;;;22.52;8.30;;;1.60;99.90;;;;;;4872606;29;20044;-73
2024/01/12 02:58:21;;;;;;;23.58;8.73;;;1.60;99.90;;;;;;4876361;29;20397;-73
2024/01/12 03:00:46;;;;;;;27.08;9.65;;;1.70;99.90;;;;;;4883332;29;20055;-73
2024/01/12 03:03:12;;;;;;;26.10;8.82;;;1.70;99.90;;;;;;4873921;29;20109;-73
2024/01/12 03:05:38;;;;;;;26.52;9.13;;;1.70;99.90;;;;;;4846787;29;20038;-73
2024/01/12 03:08:03;;;;;;;21.15;8.07;;;1.70;99.90;;;;;;4850371;29;20446;-73
2024/01/12 03:10:29;;;;;;;23.35;8.38;;;1.70;99.90;;;;;;4863451;29;20085;-73
2024/01/12 03:12:55;;;;;;;18.70;8.65;;;1.80;99.90;;;;;;4852584;29;20057;-73
2024/01/12 03:15:20;;;;;;;21.67;9.05;;;1.70;99.90;;;;;;4852433;29;20149;-73
2024/01/12 03:17:46;;;;;;;21.08;9.68;;;1.80;99.90;;;;;;4863795;29;20370;-73
2024/01/12 03:20:11;;;;;;;23.35;9.18;;;1.80;99.90;;;;;;4880436;29;20588;-73
2024/01/12 03:22:38;;;;;;;22.85;9.40;;;1.80;99.90;;;;;;4864868;29;20049;-73
2024/01/12 03:25:03;;;;;;;19.25;7.97;;;1.80;99.90;;;;;;4853298;29;20072;-73
2024/01/12 03:27:29;;;;;;;19.73;8.82;;;1.80;99.90;;;;;;4851753;29;20076;-73
2024/01/12 03:29:55;;;;;;;22.33;8.75;;;1.80;99.90;;;;;;4880701;29;20135;-73
2024/01/12 03:32:21;;;;;;;23.48;8.95;;;1.80;99.90;;;;;;4867740;29;20061;-73
2024/01/12 03:34:47;;;;;;;14.38;7.45;;;1.80;99.90;;;;;;4867236;29;20152;-73
2024/01/12 03:37:12;;;;;;;21.63;8.85;;;1.70;99.90;;;;;;4873572;29;20511;-73
2024/01/12 03:39:38;;;;;;;18.08;7.85;;;1.80;99.90;;;;;;4859024;29;20485;-73
2024/01/12 03:42:04;;;;;;;21.13;7.85;;;1.80;99.90;;;;;;4856671;29;20050;-73
2024/01/12 03:44:30;;;;;;;22.38;8.13;;;1.90;99.90;;;;;;4849813;29;20128;-73
2024/01/12 03:46:55;;;;;;;24.27;9.18;;;1.80;99.90;;;;;;4852669;29;20530;-73
2024/01/12 03:49:22;;;;;;;19.73;8.25;;;1.90;99.90;;;;;;4869084;29;20048;-73
2024/01/12 03:51:53;;;;;;;19.08;8.13;;;1.80;99.90;;;;;;4867952;29;20051;-73
2024/01/12 03:54:23;;;;;;;15.93;8.63;;;1.90;99.90;;;;;;4881835;29;20048;-72
2024/01/12 03:56:49;;;;;;;22.88;9.30;;;1.90;99.90;;;;;;4869496;29;20095;-73
2024/01/12 03:59:15;;;;;;;20.85;8.55;;;1.90;99.90;;;;;;4878927;29;20688;-73
2024/01/12 04:01:47;;;;;;;21.85;9.00;;;1.90;99.90;;;;;;4854846;29;20044;-73
2024/01/12 04:04:13;;;;;;;17.17;7.47;;;1.90;99.90;;;;;;4867025;29;20145;-73
2024/01/12 04:06:40;;;;;;;22.20;8.93;;;1.90;99.90;;;;;;4871285;29;20047;-73
2024/01/12 04:09:06;;;;;;;16.10;7.63;;;1.90;99.90;;;;;;4848444;29;20052;-73
2024/01/12 04:11:32;;;;;;;19.85;8.60;;;1.90;99.90;;;;;;4879179;29;20041;-74
2024/01/12 04:13:57;;;;;;;18.58;8.32;;;1.90;99.90;;;;;;4870212;29;20056;-73
2024/01/12 04:16:23;;;;;;;15.15;7.38;;;1.90;99.90;;;;;;4859556;29;20053;-73
2024/01/12 04:18:48;;;;;;;14.13;6.70;;;1.90;99.90;;;;;;4869501;29;20374;-73
2024/01/12 04:21:14;;;;;;;16.05;7.18;;;1.90;99.90;;;;;;4880160;29;20040;-73
2024/01/12 04:23:40;;;;;;;13.38;6.38;;;2.00;99.90;;;;;;4878500;29;20101;-73
2024/01/12 04:26:06;;;;;;;15.07;7.80;;;1.90;99.90;;;;;;4865695;29;20044;-73
2024/01/12 04:28:32;;;;;;;17.63;6.80;;;2.00;99.90;;;;;;4878456;29;20053;-73
2024/01/12 04:31:00;;;;;;;19.13;7.80;;;1.90;99.90;;;;;;4866212;29;20529;-73
2024/01/12 04:33:26;;;;;;;15.82;7.22;;;1.90;99.90;;;;;;4870200;29;20061;-73
2024/01/12 04:35:52;;;;;;;15.38;6.47;;;1.90;99.90;;;;;;4858467;29;20494;-73
2024/01/12 04:38:19;;;;;;;16.10;6.30;;;1.90;99.90;;;;;;4874497;29;20063;-73
2024/01/12 04:40:45;;;;;;;11.43;5.88;;;1.90;99.90;;;;;;4865938;29;20560;-73
2024/01/12 04:43:10;;;;;;;16.27;6.82;;;1.90;99.90;;;;;;4861117;29;20048;-73
2024/01/12 04:45:36;;;;;;;12.88;6.10;;;1.90;99.90;;;;;;4880596;29;20045;-73
2024/01/12 04:48:02;;;;;;;15.13;6.43;;;1.90;99.90;;;;;;4858556;29;20037;-73
2024/01/12 04:50:27;;;;;;;16.52;6.90;;;1.90;99.90;;;;;;4874325;29;20479;-73
2024/01/12 04:52:54;;;;;;;22.75;7.95;;;1.90;99.90;;;;;;4861697;29;20120;-73
2024/01/12 04:55:20;;;;;;;11.07;5.78;;;1.90;99.90;;;;;;4878394;29;20085;-73
2024/01/12 04:57:46;;;;;;;11.82;6.18;;;1.90;99.90;;;;;;4858336;29;20163;-73
2024/01/12 05:00:12;;;;;;;12.75;6.25;;;1.90;99.90;;;;;;4867192;29;20116;-73
2024/01/12 05:02:38;;;;;;;11.90;5.75;;;1.90;99.90;;;;;;4882048;29;20105;-73
2024/01/12 05:05:05;;;;;;;16.08;6.57;;;1.90;99.90;;;;;;4849877;29;20049;-73
2024/01/12 05:07:31;;;;;;;12.35;6.28;;;1.80;99.90;;;;;;4849904;29;20456;-73
2024/01/12 05:09:56;;;;;;;15.38;6.55;;;1.80;99.90;;;;;;4868773;29;20049;-73
2024/01/12 05:12:22;;;;;;;15.00;6.00;;;1.80;99.90;;;;;;4866116;29;20055;-73
2024/01/12 05:14:48;;;;;;;15.75;6.40;;;1.90;99.90;;;;;;4870053;29;20152;-73
2024/01/12 05:17:14;;;;;;;15.13;5.72;;;1.80;99.90;;;;;;4867853;29;20145;-73
2024/01/12 05:19:40;;;;;;;16.35;6.28;;;1.80;99.90;;;;;;4876123;29;20042;-73
2024/01/12 05:22:06;;;;;;;11.48;6.00;;;1.80;99.90;;;;;;4849825;29;20140;-73
2024/01/12 05:24:32;;;;;;;13.68;5.82;;;1.80;99.90;;;;;;4852996;29;20098;-73
2024/01/12 05:26:57;;;;;;;13.82;6.40;;;1.80;99.90;;;;;;4859220;29;20053;-73
2024/01/12 05:29:23;;;;;;;13.52;5.72;;;1.80;99.90;;;;;;4874900;29;20155;-73
2024/01/12 05:31:49;;;;;;;13.75;6.28;;;1.80;99.90;;;;;;4871163;29;20037;-74
2024/01/12 05:34:14;;;;;;;11.15;5.72;;;1.80;99.90;;;;;;4887101;29;20052;-73
2024/01/12 05:36:40;;;;;;;9.48;4.85;;;1.80;99.90;;;;;;4888471;29;20053;-73
2024/01/12 05:39:05;;;;;;;14.40;6.93;;;1.80;99.90;;;;;;4872173;29;20061;-73
2024/01/12 05:41:32;;;;;;;14.52;6.18;;;1.80;99.90;;;;;;4883376;29;20044;-73
2024/01/12 05:43:57;;;;;;;14.43;6.70;;;1.80;99.90;;;;;;4881145;29;20056;-73
2024/01/12 05:46:23;;;;;;;15.30;5.75;;;1.80;99.90;;;;;;4873607;29;20092;-73
2024/01/12 05:48:49;;;;;;;14.07;6.13;;;1.80;99.90;;;;;;4871431;29;20052;-74
2024/01/12 05:51:15;;;;;;;17.27;7.35;;;1.80;99.90;;;;;;4853880;29;20371;-73
2024/01/12 05:53:41;;;;;;;11.00;6.00;;;1.80;99.90;;;;;;4854184;29;20060;-73
2024/01/12 05:56:07;;;;;;;14.68;6.05;;;1.80;99.90;;;;;;4888514;29;20092;-73
2024/01/12 05:58:33;;;;;;;11.65;5.82;;;1.80;99.90;;;;;;4872941;29;20124;-73
2024/01/12 06:00:59;;;;;;;10.45;5.03;;;1.80;99.90;;;;;;4876634;29;20383;-73
2024/01/12 06:03:28;;;;;;;16.42;6.13;;;1.80;99.90;;;;;;4874602;29;20057;-73
2024/01/12 06:05:57;;;;;;;13.93;5.55;;;1.80;99.90;;;;;;4867637;29;20085;-73
2024/01/12 06:08:23;;;;;;;14.27;6.63;;;1.80;99.90;;;;;;4852401;29;20081;-73
2024/01/12 06:10:50;;;;;;;14.98;6.80;;;1.80;99.90;;;;;;4902360;29;20048;-73
2024/01/12 06:13:16;;;;;;;13.45;7.13;;;1.80;99.90;;;;;;4853014;29;20073;-73
2024/01/12 06:15:42;;;;;;;13.70;6.70;;;1.80;99.90;;;;;;4845272;29;20084;-73
2024/01/12 06:18:08;;;;;;;17.48;6.47;;;1.80;99.90;;;;;;4857521;29;20578;-73
2024/01/12 06:20:34;;;;;;;13.13;6.90;;;1.90;99.90;;;;;;4880795;29;20040;-73
2024/01/12 06:22:59;;;;;;;13.02;6.35;;;1.80;99.90;;;;;;4858816;29;20044;-73
2024/01/12 06:25:25;;;;;;;14.75;6.22;;;1.80;99.90;;;;;;4852424;29;20050;-73
2024/01/12 06:27:50;;;;;;;15.68;5.93;;;1.80;99.90;;;;;;4876286;29;20049;-73
2024/01/12 06:30:17;;;;;;;12.15;6.28;;;1.80;99.90;;;;;;4879812;29;20136;-73
2024/01/12 06:32:43;;;;;;;10.85;5.68;;;1.80;99.90;;;;;;4881932;29;20057;-73
2024/01/12 06:35:10;;;;;;;14.85;6.43;;;1.90;99.90;;;;;;4867156;29;20170;-77
2024/01/12 06:37:36;;;;;;;10.82;5.88;;;1.90;99.90;;;;;;4877496;29;20123;-73
2024/01/12 06:40:02;;;;;;;16.85;5.93;;;1.90;99.90;;;;;;4867827;29;20183;-73
2024/01/12 06:42:28;;;;;;;13.20;6.13;;;1.90;99.90;;;;;;4875361;29;20068;-73
2024/01/12 06:44:54;;;;;;;18.77;6.80;;;1.90;99.90;;;;;;4882886;29;20044;-73
2024/01/12 06:47:20;;;;;;;18.08;5.97;;;1.90;99.90;;;;;;4855144;29;20240;-74
2024/01/12 06:49:46;;;;;;;18.70;6.93;;;1.90;99.90;;;;;;4877614;29;20509;-76
2024/01/12 06:52:12;;;;;;;18.90;5.85;;;1.90;99.90;;;;;;4855156;29;20041;-75
2024/01/12 06:54:43;;;;;;;13.50;5.55;;;1.90;99.90;;;;;;4859500;29;21411;-76
2024/01/12 06:57:08;;;;;;;13.52;5.72;;;1.90;99.90;;;;;;4887121;29;20045;-76
2024/01/12 06:59:34;;;;;;;15.95;6.93;;;1.90;99.90;;;;;;4871920;29;20079;-76
2024/01/12 07:02:00;;;;;;;15.73;6.22;;;1.90;99.90;;;;;;4886572;29;20041;-76
2024/01/12 07:04:25;;;;;;;13.85;7.25;;;1.90;99.90;;;;;;4849374;29;20080;-76
2024/01/12 07:06:52;;;;;;;14.38;6.35;;;1.90;99.90;;;;;;4873736;29;20044;-76
2024/01/12 07:09:19;;;;;;;13.85;6.18;;;1.90;99.90;;;;;;4851544;29;20118;-76
2024/01/12 07:11:45;;;;;;;13.32;6.40;;;1.90;99.90;;;;;;4846602;29;20136;-76
2024/01/12 07:14:11;;;;;;;21.05;8.18;;;1.90;99.90;;;;;;4859232;29;20049;-76
2024/01/12 07:16:37;;;;;;;19.95;7.57;;;2.00;99.90;;;;;;4879120;29;20484;-76
2024/01/12 07:19:03;;;;;;;16.85;7.35;;;1.90;99.90;;;;;;4855043;29;20045;-76
2024/01/12 07:21:29;;;;;;;19.90;7.47;;;1.90;99.90;;;;;;4855866;29;20382;-75
2024/01/12 07:23:55;;;;;;;13.45;6.47;;;1.90;99.90;;;;;;4858885;29;20054;-76
2024/01/12 07:26:21;;;;;;;12.82;6.45;;;2.00;99.90;;;;;;4863637;29;20057;-76
2024/01/12 07:28:46;;;;;;;13.15;6.53;;;1.90;99.90;;;;;;4850497;29;20105;-76
2024/01/12 07:31:12;;;;;;;12.48;6.30;;;1.90;99.90;;;;;;4855997;29;20053;-75
2024/01/12 07:33:38;;;;;;;14.73;6.57;;;1.90;99.90;;;;;;4861166;29;20394;-75
2024/01/12 07:36:04;;;;;;;13.25;6.93;;;1.90;99.90;;;;;;4852462;29;20052;-76
2024/01/12 07:38:30;;;;;;;16.00;7.10;;;1.90;99.90;;;;;;4876223;29;20101;-76
2024/01/12 07:40:55;;;;;;;16.38;6.97;;;1.90;99.90;;;;;;4857521;29;20092;-76
2024/01/12 07:43:21;;;;;;;18.55;7.45;;;1.90;99.90;;;;;;4861007;29;20107;-76
2024/01/12 07:45:47;;;;;;;16.00;7.90;;;1.90;99.90;;;;;;4855189;29;20498;-76
2024/01/12 07:48:12;;;;;;;17.13;8.82;;;1.90;99.90;;;;;;4857016;29;20135;-76
2024/01/12 07:50:38;;;;;;;13.95;7.38;;;1.90;99.90;;;;;;4869481;29;20050;-76
2024/01/12 07:53:04;;;;;;;16.80;8.25;;;1.90;99.90;;;;;;4854370;29;20056;-76
2024/01/12 07:55:31;;;;;;;17.30;9.63;;;1.90;99.90;;;;;;4853160;29;20049;-76
2024/01/12 07:57:57;;;;;;;18.45;9.02;;;1.90;99.90;;;;;;4862699;29;20401;-76
2024/01/12 08:00:22;;;;;;;16.45;7.47;;;1.90;99.90;;;;;;4881979;29;20041;-76
2024/01/12 08:02:51;;;;;;;17.20;8.02;;;1.90;99.90;;;;;;4846416;29;20060;-76
2024/01/12 08:05:19;;;;;;;14.85;7.20;;;1.90;99.90;;;;;;4873706;29;20068;-76
2024/01/12 08:07:44;;;;;;;16.58;7.88;;;1.90;99.90;;;;;;4861953;29;20060;-76
2024/01/12 08:10:10;;;;;;;13.32;6.93;;;1.90;99.90;;;;;;4855163;29;20043;-76
2024/01/12 08:12:36;;;;;;;13.40;6.85;;;1.90;99.90;;;;;;4890091;29;20049;-76
2024/01/12 08:15:01;;;;;;;14.48;6.50;;;1.90;99.90;;;;;;4861144;29;20104;-77
2024/01/12 08:17:27;;;;;;;12.25;7.03;;;1.90;99.90;;;;;;4863481;29;20045;-77
2024/01/12 08:19:53;;;;;;;11.48;5.95;;;1.90;99.90;;;;;;4853318;29;20681;-76
2024/01/12 08:22:18;;;;;;;18.70;6.70;;;1.90;99.90;;;;;;4851377;29;20059;-74
2024/01/12 08:24:44;;;;;;;10.10;6.22;;;1.90;99.90;;;;;;4872454;29;20053;-73
2024/01/12 08:27:10;;;;;;;19.02;6.63;;;1.90;99.90;;;;;;4861009;29;20040;-73
2024/01/12 08:29:35;;;;;;;17.55;6.78;;;1.90;99.90;;;;;;4870016;29;20124;-76
2024/01/12 08:32:01;;;;;;;15.50;5.97;;;1.90;99.90;;;;;;4858001;29;20644;-76
2024/01/12 08:34:27;;;;;;;14.35;6.57;;;1.90;99.90;;;;;;4853728;29;20061;-79
2024/01/12 08:36:53;;;;;;;23.15;7.50;;;1.90;99.90;;;;;;4849556;29;20057;-78
2024/01/12 08:39:19;;;;;;;20.80;6.95;;;1.90;99.90;;;;;;4873061;29;20049;-77
2024/01/12 08:41:44;;;;;;;26.88;16.63;;;1.90;99.90;;;;;;4869284;29;20525;-76
2024/01/12 08:44:13;;;;;;;16.73;6.82;;;2.00;99.90;;;;;;4867925;29;20141;-77
2024/01/12 08:46:39;;;;;;;17.25;6.30;;;2.00;99.90;;;;;;4862476;29;20110;-77
2024/01/12 08:49:04;;;;;;;17.52;5.80;;;2.00;99.90;;;;;;4868536;29;20034;-77
2024/01/12 08:51:30;;;;;;;19.75;6.50;;;2.00;99.90;;;;;;4842879;29;20057;-76
2024/01/12 08:53:56;;;;;;;19.48;6.35;;;1.90;99.90;;;;;;4868710;29;20051;-76
2024/01/12 08:56:21;;;;;;;19.60;8.02;;;2.00;99.90;;;;;;4866443;29;20041;-75
2024/01/12 08:58:47;;;;;;;17.05;7.28;;;2.00;99.90;;;;;;4876419;29;20041;-74
2024/01/12 09:01:15;;;;;;;19.23;6.55;;;2.00;99.90;;;;;;4867435;29;20558;-72
2024/01/12 09:03:41;;;;;;;28.92;15.38;;;2.00;99.90;;;;;;4872813;29;20080;-73
2024/01/12 09:06:07;;;;;;;15.27;6.43;;;2.00;99.90;;;;;;4867527;29;20667;-73
2024/01/12 09:08:33;;;;;;;17.98;5.95;;;2.10;99.90;;;;;;4843106;29;20048;-74
2024/01/12 09:11:01;;;;;;;17.90;6.60;;;2.30;99.90;;;;;;4858673;29;20045;-72
2024/01/12 09:13:26;;;;;;;18.75;6.10;;;2.20;99.90;;;;;;4872346;29;20149;-71
2024/01/12 09:15:52;;;;;;;22.17;6.28;;;2.20;99.90;;;;;;4877183;29;20129;-72
2024/01/12 09:18:17;;;;;;;15.02;6.85;;;2.20;99.90;;;;;;4840425;29;20046;-72
2024/01/12 09:20:43;;;;;;;23.10;6.72;;;2.30;99.90;;;;;;4846217;29;20082;-74
2024/01/12 09:23:09;;;;;;;14.45;6.40;;;2.30;99.90;;;;;;4862062;29;20033;-77
2024/01/12 09:25:35;;;;;;;22.40;7.35;;;2.30;99.90;;;;;;4844349;29;20045;-73
2024/01/12 09:28:00;;;;;;;13.52;7.13;;;2.30;99.90;;;;;;4867093;29;20135;-76
2024/01/12 09:30:26;;;;;;;13.63;6.30;;;2.30;99.90;;;;;;4847860;29;20045;-77
2024/01/12 09:32:52;;;;;;;20.85;6.45;;;2.30;99.90;;;;;;4855360;29;20764;-73
2024/01/12 09:35:18;;;;;;;11.82;6.10;;;2.30;99.90;;;;;;4860418;29;20188;-73
2024/01/12 09:37:43;;;;;;;16.27;6.75;;;2.30;99.90;;;;;;4875589;29;20791;-72
2024/01/12 09:40:10;;;;;;;19.70;7.38;;;2.30;99.90;;;;;;4866025;29;20052;-72
2024/01/12 09:42:41;;;;;;;16.02;6.70;;;2.30;99.90;;;;;;4858058;29;20044;-72
2024/01/12 09:45:11;;;;;;;14.27;6.80;;;2.30;99.90;;;;;;4866466;29;20045;-73
2024/01/12 09:47:37;;;;;;;14.30;6.03;;;2.30;99.90;;;;;;4853323;29;20129;-71
2024/01/12 09:50:05;;;;;;;16.45;6.43;;;2.30;99.90;;;;;;4852507;29;20577;-73
2024/01/12 09:52:31;;;;;;;13.18;7.07;;;2.30;99.90;;;;;;4860863;29;20478;-73
2024/01/12 09:54:56;;;;;;;17.75;7.10;;;2.40;99.90;;;;;;4868525;29;20054;-74
2024/01/12 09:57:23;;;;;;;17.33;7.05;;;2.30;99.90;;;;;;4873354;29;20051;-74
2024/01/12 09:59:50;;;;;;;13.77;6.72;;;2.30;99.90;;;;;;4846418;29;20049;-74
2024/01/12 10:02:17;;;;;;;11.73;6.20;;;2.30;99.90;;;;;;4872461;29;20694;-72
2024/01/12 10:04:43;;;;;;;16.33;6.78;;;2.30;99.90;;;;;;4869893;29;20794;-74
2024/01/12 10:07:09;;;;;;;22.00;7.28;;;2.40;99.90;;;;;;4848276;29;20078;-73
2024/01/12 10:09:34;;;;;;;14.93;6.32;;;2.50;99.90;;;;;;4847148;29;20512;-74
2024/01/12 10:12:00;;;;;;;17.38;7.13;;;2.50;99.90;;;;;;4853268;29;20054;-75
2024/01/12 10:14:26;;;;;;;20.65;7.53;;;2.60;99.90;;;;;;4852584;29;20790;-76
2024/01/12 10:16:55;;;;;;;21.95;7.05;;;2.70;99.90;;;;;;4849721;29;20455;-76
2024/01/12 10:19:21;;;;;;;13.10;6.55;;;2.80;99.90;;;;;;4873523;29;20045;-75
2024/01/12 10:21:48;;;;;;;16.13;6.75;;;2.80;99.90;;;;;;4847242;29;20060;-74
2024/01/12 10:24:17;;;;;;;14.95;7.03;;;2.90;99.90;;;;;;4852747;29;20061;-74
2024/01/12 10:26:43;;;;;;;14.65;5.88;;;2.80;99.90;;;;;;4868952;29;20454;-75
2024/01/12 10:29:11;;;;;;;16.30;6.90;;;2.80;99.90;;;;;;4845848;29;20354;-77
2024/01/12 10:31:44;;;;;;;15.30;6.25;;;2.80;99.90;;;;;;4856584;29;20044;-76
2024/01/12 10:34:14;;;;;;;22.40;7.28;;;2.70;99.90;;;;;;4881580;29;20428;-78
2024/01/12 10:36:41;;;;;;;19.95;6.45;;;2.70;99.90;;;;;;4874136;29;20106;-77
2024/01/12 10:39:08;;;;;;;13.48;6.28;;;2.70;99.90;;;;;;4855691;29;20053;-74
2024/01/12 10:41:37;;;;;;;;;;;2.70;99.90;;;;;;4868260;29;20048;-74
2024/01/12 10:44:06;;;;;;;17.25;7.15;;;2.70;99.90;;;;;;4873296;29;19952;-73
2024/01/12 10:46:39;;;;;;;17.20;7.03;;;2.70;99.90;;;;;;4863963;29;20061;-73
2024/01/12 10:49:20;;;;;;;19.38;7.88;;;2.70;99.90;;;;;;4848519;29;20700;-74
2024/01/12 10:52:02;;;;;;;15.70;7.07;;;2.80;99.90;;;;;;4869527;29;20132;-74
2024/01/12 10:54:33;;;;;;;19.42;6.85;;;2.80;99.90;;;;;;4872788;29;20128;-73
2024/01/12 10:57:00;;;;;;;22.25;6.90;;;2.80;99.90;;;;;;4862333;29;20176;-75
2024/01/12 10:59:27;;;;;;;16.15;6.80;;;2.80;99.90;;;;;;4871505;29;20059;-75
2024/01/12 11:01:54;;;;;;;14.55;7.22;;;2.80;99.90;;;;;;4850219;29;20042;-77
2024/01/12 11:04:21;;;;;;;16.80;6.88;;;2.80;99.90;;;;;;4868965;29;20401;-74
2024/01/12 11:06:55;;;;;;;16.60;7.10;;;2.90;99.90;;;;;;4856809;29;20042;-75
2024/01/12 11:09:22;;;;;;;16.92;7.65;;;2.90;99.90;;;;;;4885716;29;20053;-74
2024/01/12 11:11:55;;;;;;;19.20;7.55;;;2.90;99.90;;;;;;4876507;29;20045;-74
2024/01/12 11:14:21;;;;;;;12.88;6.90;;;3.00;99.90;;;;;;4873726;29;20169;-74
2024/01/12 11:16:47;;;;;;;21.23;7.18;;;3.00;99.90;;;;;;4850351;29;20076;-73
2024/01/12 11:19:21;;;;;;;19.27;7.00;;;3.10;99.90;;;;;;4896272;29;20093;-74
2024/01/12 11:21:47;;;;;;;17.70;7.05;;;3.10;99.90;;;;;;4854635;29;20091;-76
2024/01/12 11:24:13;;;;;;;13.75;5.90;;;3.10;99.90;;;;;;4856113;29;20092;-75
2024/01/12 11:26:41;;;;;;;23.00;12.07;;;3.20;99.90;;;;;;4871465;29;20047;-74
2024/01/12 11:29:14;;;;;;;19.50;5.70;;;3.30;99.90;;;;;;4864408;29;20438;-74
2024/01/12 11:31:50;;;;;;;15.25;5.25;;;3.30;99.90;;;;;;4874272;29;20099;-74
2024/01/12 11:34:17;;;;;;;11.75;5.55;;;3.30;99.90;;;;;;4864194;29;20779;-77
2024/01/12 11:36:42;;;;;;;21.05;11.18;;;3.40;99.90;;;;;;4863883;29;20056;-72
2024/01/12 11:39:12;;;;;;;14.48;5.47;;;3.40;99.90;;;;;;4874107;29;20053;-73
2024/01/12 11:41:45;;;;;;;14.50;5.40;;;3.40;99.90;;;;;;4856670;29;20049;-73
2024/01/12 11:44:10;;;;;;;16.48;5.43;;;3.50;99.90;;;;;;4868375;29;20097;-81
2024/01/12 11:46:36;;;;;;;13.57;5.43;;;3.50;99.90;;;;;;4858189;29;20056;-74
2024/01/12 11:49:04;;;;;;;16.55;4.80;;;3.60;99.90;;;;;;4867680;29;20049;-75
2024/01/12 11:51:30;;;;;;;13.25;5.05;;;3.60;99.90;;;;;;4849362;29;20049;-75
2024/01/12 11:53:58;;;;;;;14.43;5.40;;;3.70;99.90;;;;;;4853618;29;20494;-75
2024/01/12 11:56:26;;;;;;;14.15;4.88;;;3.80;99.90;;;;;;4866120;29;20064;-75
2024/01/12 11:58:52;;;;;;;14.40;5.03;;;3.80;99.90;;;;;;4852348;29;20061;-75
2024/01/12 12:01:19;;;;;;;15.05;4.38;;;3.80;99.90;;;;;;4853464;29;20978;-75
2024/01/12 12:03:45;;;;;;;20.05;4.72;;;3.90;99.90;;;;;;4848965;29;20049;-75
2024/01/12 12:06:12;;;;;;;12.25;4.20;;;3.90;99.90;;;;;;4849538;29;20125;-75
2024/01/12 12:08:41;;;;;;;10.95;3.72;;;3.90;99.90;;;;;;4853415;29;20076;-75
2024/01/12 12:11:07;;;;;;;16.27;4.95;;;4.00;99.90;;;;;;4858386;29;20055;-75
2024/01/12 12:13:37;;;;;;;15.07;4.20;;;4.00;99.90;;;;;;4852697;29;20539;-75
2024/01/12 12:16:03;;;;;;;16.83;3.83;;;4.10;99.90;;;;;;4856143;29;20041;-75
2024/01/12 12:18:31;;;;;;;13.00;3.63;;;4.00;99.90;;;;;;4857149;29;20046;-75
2024/01/12 12:21:00;;;;;;;14.95;3.40;;;4.10;99.90;;;;;;4866013;29;20041;-75
2024/01/12 12:23:25;;;;;;;16.10;4.18;;;4.10;99.90;;;;;;4857685;29;20041;-75
2024/01/12 12:25:52;;;;;;;14.82;3.83;;;4.10;99.90;;;;;;4860521;29;20411;-75
2024/01/12 12:28:18;;;;;;;11.50;3.50;;;4.10;99.90;;;;;;4874559;29;20045;-75
2024/01/12 12:30:43;;;;;;;14.40;3.65;;;4.10;99.90;;;;;;4856898;29;20325;-76
2024/01/12 12:33:11;;;;;;;15.95;2.88;;;4.10;99.90;;;;;;4856723;29;20048;-75
2024/01/12 12:35:37;;;;;;;27.23;7.38;;;4.10;99.90;;;;;;4864196;29;20148;-75
2024/01/12 12:38:03;;;;;;;9.73;3.20;;;4.20;99.90;;;;;;4864380;29;20041;-75
2024/01/12 12:40:30;;;;;;;18.05;3.80;;;4.20;99.90;;;;;;4852742;29;20089;-76